createdAt,value
2017-10-04T00:00:06.489Z,1008.09
2017-10-04T00:01:06.506Z,1008.07
2017-10-04T00:02:06.527Z,1008.04
2017-10-04T00:03:06.549Z,1008.08
2017-10-04T00:04:06.562Z,1008.07
2017-10-04T00:05:06.585Z,1008.10
2017-10-04T00:06:06.604Z,1008.13
2017-10-04T00:07:06.622Z,1008.13
2017-10-04T00:08:06.639Z,1008.15
2017-10-04T00:09:06.660Z,1008.19
2017-10-04T00:10:06.677Z,1008.20
2017-10-04T00:11:06.705Z,1008.16
2017-10-04T00:12:06.718Z,1008.11
2017-10-04T00:13:06.737Z,1008.09
2017-10-04T00:14:06.761Z,1008.11
2017-10-04T00:15:06.776Z,1008.07
2017-10-04T00:16:06.794Z,1008.05
2017-10-04T00:17:06.810Z,1008.06
2017-10-04T00:18:06.837Z,1008.02
2017-10-04T00:19:06.850Z,1008.02
2017-10-04T00:20:06.869Z,1007.95
2017-10-04T00:21:06.891Z,1007.98
2017-10-04T00:22:06.908Z,1007.96
2017-10-04T00:23:06.924Z,1007.93
2017-10-04T00:24:06.944Z,1007.92
2017-10-04T00:25:06.963Z,1007.91
2017-10-04T00:26:06.987Z,1007.90
2017-10-04T00:27:07.002Z,1007.94
2017-10-04T00:28:07.019Z,1007.92
2017-10-04T00:29:07.040Z,1007.94
2017-10-04T00:30:07.058Z,1008.01
2017-10-04T00:31:07.076Z,1007.99
2017-10-04T00:32:07.095Z,1007.94
2017-10-04T00:33:07.113Z,1007.90
2017-10-04T00:34:07.134Z,1007.90
2017-10-04T00:35:07.152Z,1007.86
2017-10-04T00:36:07.169Z,1007.89
2017-10-04T00:37:07.193Z,1007.89
2017-10-04T00:38:07.208Z,1007.85
2017-10-04T00:39:07.229Z,1007.85
2017-10-04T00:40:07.250Z,1007.82
2017-10-04T00:41:07.265Z,1007.85
2017-10-04T00:42:07.286Z,1007.85
2017-10-04T00:43:07.302Z,1007.90
2017-10-04T00:44:07.322Z,1007.86
2017-10-04T00:45:07.343Z,1007.86
2017-10-04T00:46:07.372Z,1007.86
2017-10-04T00:47:07.394Z,1007.80
2017-10-04T00:48:07.400Z,1007.79
2017-10-04T00:49:07.416Z,1007.77
2017-10-04T00:50:07.438Z,1007.84
2017-10-04T00:51:07.457Z,1007.83
2017-10-04T00:52:07.477Z,1007.80
2017-10-04T00:53:07.494Z,1007.79
2017-10-04T00:54:07.515Z,1007.74
2017-10-04T00:55:07.530Z,1007.75
2017-10-04T00:56:07.552Z,1007.78
2017-10-04T00:57:07.583Z,1007.80
2017-10-04T00:58:07.591Z,1007.80
2017-10-04T00:59:07.606Z,1007.80
2017-10-04T01:00:07.626Z,1007.77
2017-10-04T01:01:07.701Z,1007.77
2017-10-04T01:02:07.663Z,1007.74
2017-10-04T01:03:07.686Z,1007.77
2017-10-04T01:04:07.699Z,1007.77
2017-10-04T01:05:07.720Z,1007.81
2017-10-04T01:06:07.742Z,1007.80
2017-10-04T01:07:07.760Z,1007.74
2017-10-04T01:08:07.778Z,1007.68
2017-10-04T01:09:07.797Z,1007.70
2017-10-04T01:10:07.821Z,1007.73
2017-10-04T01:11:07.835Z,1007.75
2017-10-04T01:12:07.856Z,1007.73
2017-10-04T01:13:07.874Z,1007.70
2017-10-04T01:14:07.896Z,1007.64
2017-10-04T01:15:07.912Z,1007.64
2017-10-04T01:16:07.930Z,1007.65
2017-10-04T01:17:07.955Z,1007.65
2017-10-04T01:18:07.972Z,1007.66
2017-10-04T01:19:07.986Z,1007.66
2017-10-04T01:20:08.008Z,1007.61
2017-10-04T01:21:08.027Z,1007.59
2017-10-04T01:22:08.049Z,1007.59
2017-10-04T01:23:08.062Z,1007.58
2017-10-04T01:24:08.083Z,1007.59
2017-10-04T01:25:08.103Z,1007.54
2017-10-04T01:26:08.131Z,1007.48
2017-10-04T01:27:08.141Z,1007.44
2017-10-04T01:28:08.161Z,1007.46
2017-10-04T01:29:08.177Z,1007.43
2017-10-04T01:30:08.202Z,1007.48
2017-10-04T01:31:08.217Z,1007.46
2017-10-04T01:32:08.235Z,1007.46
2017-10-04T01:33:08.260Z,1007.49
2017-10-04T01:34:08.274Z,1007.49
2017-10-04T01:35:08.296Z,1007.47
2017-10-04T01:36:08.310Z,1007.48
2017-10-04T01:37:08.332Z,1007.47
2017-10-04T01:38:08.350Z,1007.44
2017-10-04T01:39:08.370Z,1007.44
2017-10-04T01:40:08.387Z,1007.41
2017-10-04T01:41:08.409Z,1007.45
2017-10-04T01:42:08.431Z,1007.45
2017-10-04T01:43:08.447Z,1007.50
2017-10-04T01:44:08.463Z,1007.47
2017-10-04T01:45:08.483Z,1007.47
2017-10-04T01:46:08.505Z,1007.42
2017-10-04T01:47:08.526Z,1007.42
2017-10-04T01:48:08.543Z,1007.41
2017-10-04T01:49:08.560Z,1007.37
2017-10-04T01:50:08.581Z,1007.31
2017-10-04T01:51:08.596Z,1007.35
2017-10-04T01:52:08.622Z,1007.35
2017-10-04T01:53:08.641Z,1007.35
2017-10-04T01:54:08.658Z,1007.37
2017-10-04T01:55:08.677Z,1007.39
2017-10-04T01:56:08.694Z,1007.40
2017-10-04T01:57:08.715Z,1007.39
2017-10-04T01:58:08.735Z,1007.42
2017-10-04T01:59:08.753Z,1007.44
2017-10-04T02:00:08.771Z,1007.48
2017-10-04T02:01:08.791Z,1007.48
2017-10-04T02:02:08.815Z,1007.46
2017-10-04T02:03:08.831Z,1007.51
2017-10-04T02:04:08.846Z,1007.50
2017-10-04T02:05:08.866Z,1007.51
2017-10-04T02:06:08.890Z,1007.47
2017-10-04T02:07:08.905Z,1007.45
2017-10-04T02:08:08.924Z,1007.41
2017-10-04T02:09:08.942Z,1007.43
2017-10-04T02:10:08.966Z,1007.44
2017-10-04T02:11:08.987Z,1007.42
2017-10-04T02:12:09.004Z,1007.41
2017-10-04T02:13:09.017Z,1007.44
2017-10-04T02:14:09.041Z,1007.43
2017-10-04T02:15:09.058Z,1007.41
2017-10-04T02:16:09.076Z,1007.42
2017-10-04T02:17:09.098Z,1007.44
2017-10-04T02:18:09.119Z,1007.41
2017-10-04T02:19:09.134Z,1007.41
2017-10-04T02:20:09.153Z,1007.40
2017-10-04T02:21:09.173Z,1007.39
2017-10-04T02:22:09.192Z,1007.42
2017-10-04T02:23:09.211Z,1007.42
2017-10-04T02:24:09.232Z,1007.44
2017-10-04T02:25:09.253Z,1007.39
2017-10-04T02:26:09.273Z,1007.32
2017-10-04T02:27:09.287Z,1007.32
2017-10-04T02:28:09.308Z,1007.29
2017-10-04T02:29:09.327Z,1007.33
2017-10-04T02:30:09.345Z,1007.31
2017-10-04T02:31:09.364Z,1007.33
2017-10-04T02:32:09.387Z,1007.36
2017-10-04T02:33:09.401Z,1007.32
2017-10-04T02:34:09.425Z,1007.32
2017-10-04T02:35:09.445Z,1007.28
2017-10-04T02:36:09.458Z,1007.29
2017-10-04T02:37:09.481Z,1007.32
2017-10-04T02:38:09.501Z,1007.29
2017-10-04T02:39:09.515Z,1007.33
2017-10-04T02:40:09.537Z,1007.30
2017-10-04T02:41:09.555Z,1007.33
2017-10-04T02:42:09.578Z,1007.35
2017-10-04T02:43:09.598Z,1007.36
2017-10-04T02:44:09.613Z,1007.40
2017-10-04T02:45:09.632Z,1007.36
2017-10-04T02:46:09.653Z,1007.34
2017-10-04T02:47:09.674Z,1007.29
2017-10-04T02:48:09.691Z,1007.29
2017-10-04T02:49:09.708Z,1007.27
2017-10-04T02:50:09.727Z,1007.30
2017-10-04T02:51:09.744Z,1007.31
2017-10-04T02:52:09.765Z,1007.28
2017-10-04T02:53:09.787Z,1007.30
2017-10-04T02:54:09.805Z,1007.32
2017-10-04T02:55:09.823Z,1007.33
2017-10-04T02:56:09.843Z,1007.31
2017-10-04T02:57:09.859Z,1007.26
2017-10-04T02:58:09.880Z,1007.24
2017-10-04T02:59:09.900Z,1007.22
2017-10-04T03:00:09.916Z,1007.24
2017-10-04T03:01:09.939Z,1007.22
2017-10-04T03:02:09.958Z,1007.26
2017-10-04T03:03:09.974Z,1007.17
2017-10-04T03:04:09.996Z,1007.15
2017-10-04T03:05:10.015Z,1007.15
2017-10-04T03:06:10.033Z,1007.12
2017-10-04T03:07:10.054Z,1007.13
2017-10-04T03:08:10.075Z,1007.15
2017-10-04T03:09:10.091Z,1007.16
2017-10-04T03:10:10.127Z,1007.12
2017-10-04T03:11:10.129Z,1007.08
2017-10-04T03:12:10.148Z,1007.04
2017-10-04T03:13:10.172Z,1007.06
2017-10-04T03:14:10.190Z,1007.09
2017-10-04T03:15:10.206Z,1007.05
2017-10-04T03:16:10.225Z,1007.06
2017-10-04T03:17:10.240Z,1007.06
2017-10-04T03:18:10.267Z,1007.02
2017-10-04T03:19:10.282Z,1007.00
2017-10-04T03:20:10.301Z,1006.99
2017-10-04T03:21:10.322Z,1006.95
2017-10-04T03:22:10.338Z,1006.95
2017-10-04T03:23:10.357Z,1006.97
2017-10-04T03:24:10.377Z,1006.99
2017-10-04T03:25:10.395Z,1006.96
2017-10-04T03:26:10.415Z,1006.93
2017-10-04T03:27:10.498Z,1006.89
2017-10-04T03:28:10.463Z,1006.88
2017-10-04T03:29:10.474Z,1006.87
2017-10-04T03:30:10.495Z,1006.86
2017-10-04T03:31:10.511Z,1006.88
2017-10-04T03:32:10.531Z,1006.87
2017-10-04T03:33:10.549Z,1006.88
2017-10-04T03:34:10.569Z,1006.86
2017-10-04T03:35:10.587Z,1006.82
2017-10-04T03:36:10.606Z,1006.81
2017-10-04T03:37:10.627Z,1006.73
2017-10-04T03:38:10.647Z,1006.73
2017-10-04T03:39:10.665Z,1006.77
2017-10-04T03:40:10.682Z,1006.76
2017-10-04T03:41:10.701Z,1006.79
2017-10-04T03:42:10.723Z,1006.76
2017-10-04T03:43:10.740Z,1006.76
2017-10-04T03:44:10.788Z,1006.75
2017-10-04T03:45:10.777Z,1006.77
2017-10-04T03:46:10.799Z,1006.78
2017-10-04T03:47:10.818Z,1006.77
2017-10-04T03:48:10.845Z,1006.81
2017-10-04T03:49:10.856Z,1006.81
2017-10-04T03:50:10.877Z,1006.78
2017-10-04T03:51:10.894Z,1006.78
2017-10-04T03:52:10.938Z,1006.81
2017-10-04T03:53:10.934Z,1006.85
2017-10-04T03:54:10.973Z,1006.83
2017-10-04T03:55:10.992Z,1006.86
2017-10-04T03:56:11.022Z,1006.87
2017-10-04T03:57:11.008Z,1006.93
2017-10-04T03:58:11.028Z,1006.91
2017-10-04T03:59:11.045Z,1006.91
2017-10-04T04:00:11.066Z,1006.90
2017-10-04T04:01:11.085Z,1006.91
2017-10-04T04:02:11.104Z,1006.88
2017-10-04T04:03:11.122Z,1006.88
2017-10-04T04:04:11.142Z,1006.86
2017-10-04T04:05:11.157Z,1006.90
2017-10-04T04:06:11.182Z,1006.87
2017-10-04T04:07:11.199Z,1006.84
2017-10-04T04:08:11.219Z,1006.82
2017-10-04T04:09:11.235Z,1006.77
2017-10-04T04:10:11.260Z,1006.76
2017-10-04T04:11:11.275Z,1006.72
2017-10-04T04:12:11.290Z,1006.69
2017-10-04T04:13:11.310Z,1006.70
2017-10-04T04:14:11.334Z,1006.73
2017-10-04T04:15:11.349Z,1006.72
2017-10-04T04:16:11.368Z,1006.70
2017-10-04T04:17:11.392Z,1006.66
2017-10-04T04:18:11.410Z,1006.65
2017-10-04T04:19:11.433Z,1006.64
2017-10-04T04:20:11.450Z,1006.63
2017-10-04T04:21:11.463Z,1006.59
2017-10-04T04:22:11.486Z,1006.60
2017-10-04T04:23:11.503Z,1006.57
2017-10-04T04:24:11.520Z,1006.59
2017-10-04T04:25:11.543Z,1006.61
2017-10-04T04:26:11.559Z,1006.60
2017-10-04T04:27:11.579Z,1006.61
2017-10-04T04:28:11.599Z,1006.58
2017-10-04T04:29:11.617Z,1006.54
2017-10-04T04:30:11.637Z,1006.53
2017-10-04T04:31:11.663Z,1006.49
2017-10-04T04:32:11.677Z,1006.51
2017-10-04T04:33:11.699Z,1006.49
2017-10-04T04:34:11.712Z,1006.48
2017-10-04T04:35:11.732Z,1006.46
2017-10-04T04:36:11.753Z,1006.43
2017-10-04T04:37:11.770Z,1006.41
2017-10-04T04:38:11.787Z,1006.36
2017-10-04T04:39:11.807Z,1006.30
2017-10-04T04:40:11.826Z,1006.37
2017-10-04T04:41:11.864Z,1006.35
2017-10-04T04:42:11.862Z,1006.38
2017-10-04T04:43:11.882Z,1006.37
2017-10-04T04:44:11.902Z,1006.39
2017-10-04T04:45:11.920Z,1006.35
2017-10-04T04:46:11.938Z,1006.35
2017-10-04T04:47:11.961Z,1006.32
2017-10-04T04:48:11.979Z,1006.34
2017-10-04T04:49:12.000Z,1006.36
2017-10-04T04:50:12.022Z,1006.32
2017-10-04T04:51:12.037Z,1006.27
2017-10-04T04:52:12.055Z,1006.24
2017-10-04T04:53:12.073Z,1006.25
2017-10-04T04:54:12.094Z,1006.25
2017-10-04T04:55:12.111Z,1006.28
2017-10-04T04:56:12.135Z,1006.29
2017-10-04T04:57:12.145Z,1006.32
2017-10-04T04:58:12.167Z,1006.27
2017-10-04T04:59:12.189Z,1006.25
2017-10-04T05:00:12.209Z,1006.21
2017-10-04T05:01:12.223Z,1006.22
2017-10-04T05:02:12.245Z,1006.23
2017-10-04T05:03:12.350Z,1006.23
2017-10-04T05:04:12.279Z,1006.21
2017-10-04T05:05:12.300Z,1006.20
2017-10-04T05:06:12.324Z,1006.19
2017-10-04T05:07:12.339Z,1006.19
2017-10-04T05:08:12.361Z,1006.19
2017-10-04T05:09:12.374Z,1006.20
2017-10-04T05:10:12.395Z,1006.22
2017-10-04T05:11:12.417Z,1006.26
2017-10-04T05:12:12.431Z,1006.29
2017-10-04T05:13:12.458Z,1006.29
2017-10-04T05:14:12.476Z,1006.25
2017-10-04T05:15:12.495Z,1006.26
2017-10-04T05:16:12.516Z,1006.23
2017-10-04T05:17:12.524Z,1006.18
2017-10-04T05:18:12.546Z,1006.17
2017-10-04T05:19:12.572Z,1006.18
2017-10-04T05:20:12.592Z,1006.16
2017-10-04T05:21:12.607Z,1006.16
2017-10-04T05:22:12.625Z,1006.16
2017-10-04T05:23:12.650Z,1006.14
2017-10-04T05:24:12.666Z,1006.15
2017-10-04T05:25:12.698Z,1006.10
2017-10-04T05:26:12.706Z,1006.08
2017-10-04T05:27:12.768Z,1006.13
2017-10-04T05:28:12.748Z,1006.10
2017-10-04T05:29:12.756Z,1006.13
2017-10-04T05:30:12.771Z,1006.10
2017-10-04T05:31:12.791Z,1006.03
2017-10-04T05:32:12.812Z,1006.01
2017-10-04T05:33:12.829Z,1005.99
2017-10-04T05:34:12.845Z,1005.98
2017-10-04T05:35:12.886Z,1005.97
2017-10-04T05:36:12.893Z,1005.96
2017-10-04T05:37:12.919Z,1005.94
2017-10-04T05:38:12.945Z,1005.94
2017-10-04T05:39:12.939Z,1005.97
2017-10-04T05:40:12.970Z,1005.99
2017-10-04T05:41:12.980Z,1005.98
2017-10-04T05:42:12.997Z,1006.02
2017-10-04T05:43:13.020Z,1006.08
2017-10-04T05:44:13.036Z,1006.09
2017-10-04T05:45:13.060Z,1006.10
2017-10-04T05:46:13.082Z,1006.09
2017-10-04T05:47:13.090Z,1006.09
2017-10-04T05:48:13.126Z,1006.07
2017-10-04T05:49:13.131Z,1006.10
2017-10-04T05:50:13.151Z,1006.15
2017-10-04T05:51:13.166Z,1006.20
2017-10-04T05:52:13.195Z,1006.18
2017-10-04T05:53:13.210Z,1006.19
2017-10-04T05:54:13.222Z,1006.18
2017-10-04T05:55:13.241Z,1006.20
2017-10-04T05:56:13.266Z,1006.14
2017-10-04T05:57:13.282Z,1006.16
2017-10-04T05:58:13.303Z,1006.16
2017-10-04T05:59:13.319Z,1006.17
2017-10-04T06:00:13.341Z,1006.21
2017-10-04T06:01:13.355Z,1006.27
2017-10-04T06:02:13.377Z,1006.27
2017-10-04T06:03:13.393Z,1006.29
2017-10-04T06:04:13.412Z,1006.29
2017-10-04T06:05:13.433Z,1006.27
2017-10-04T06:06:13.463Z,1006.31
2017-10-04T06:07:13.469Z,1006.29
2017-10-04T06:08:13.490Z,1006.33
2017-10-04T06:09:13.505Z,1006.37
2017-10-04T06:10:13.527Z,1006.31
2017-10-04T06:11:13.545Z,1006.31
2017-10-04T06:12:13.563Z,1006.27
2017-10-04T06:13:13.591Z,1006.22
2017-10-04T06:14:13.601Z,1006.23
2017-10-04T06:15:13.620Z,1006.22
2017-10-04T06:16:13.638Z,1006.24
2017-10-04T06:17:13.657Z,1006.17
2017-10-04T06:18:13.678Z,1006.14
2017-10-04T06:19:13.697Z,1006.13
2017-10-04T06:20:13.713Z,1006.21
2017-10-04T06:21:13.732Z,1006.20
2017-10-04T06:22:13.753Z,1006.24
2017-10-04T06:23:13.772Z,1006.25
2017-10-04T06:24:13.790Z,1006.28
2017-10-04T06:25:13.812Z,1006.31
2017-10-04T06:26:13.829Z,1006.31
2017-10-04T06:27:13.847Z,1006.36
2017-10-04T06:28:13.867Z,1006.35
2017-10-04T06:29:13.883Z,1006.37
2017-10-04T06:30:13.904Z,1006.39
2017-10-04T06:31:13.927Z,1006.40
2017-10-04T06:32:13.944Z,1006.39
2017-10-04T06:33:13.963Z,1006.43
2017-10-04T06:34:13.982Z,1006.43
2017-10-04T06:35:14.000Z,1006.45
2017-10-04T06:36:14.020Z,1006.44
2017-10-04T06:37:14.039Z,1006.50
2017-10-04T06:38:14.059Z,1006.59
2017-10-04T06:39:14.077Z,1006.55
2017-10-04T06:40:14.095Z,1006.53
2017-10-04T06:41:14.114Z,1006.52
2017-10-04T06:42:14.135Z,1006.52
2017-10-04T06:43:14.154Z,1006.50
2017-10-04T06:44:14.176Z,1006.53
2017-10-04T06:45:14.191Z,1006.53
2017-10-04T06:46:14.211Z,1006.57
2017-10-04T06:47:14.232Z,1006.58
2017-10-04T06:48:14.249Z,1006.59
2017-10-04T06:49:14.270Z,1006.58
2017-10-04T06:50:14.288Z,1006.58
2017-10-04T06:51:14.308Z,1006.62
2017-10-04T06:52:14.327Z,1006.66
2017-10-04T06:53:14.346Z,1006.76
2017-10-04T06:54:14.363Z,1006.74
2017-10-04T06:55:14.386Z,1006.73
2017-10-04T06:56:14.407Z,1006.76
2017-10-04T06:57:14.424Z,1006.67
2017-10-04T06:58:14.442Z,1006.57
2017-10-04T06:59:14.462Z,1006.58
2017-10-04T07:00:14.486Z,1006.60
2017-10-04T07:01:14.502Z,1006.61
2017-10-04T07:02:14.527Z,1006.66
2017-10-04T07:03:14.549Z,1006.68
2017-10-04T07:04:14.562Z,1006.70
2017-10-04T07:05:14.585Z,1006.89
2017-10-04T07:06:14.601Z,1007.04
2017-10-04T07:07:14.616Z,1007.00
2017-10-04T07:08:14.646Z,1007.52
2017-10-04T07:09:14.659Z,1008.00
2017-10-04T07:10:14.681Z,1006.94
2017-10-04T07:11:14.695Z,1007.81
2017-10-04T07:12:14.722Z,1007.22
2017-10-04T07:13:14.735Z,1006.89
2017-10-04T07:14:14.759Z,1006.77
2017-10-04T07:15:14.779Z,1006.67
2017-10-04T07:16:14.797Z,1006.51
2017-10-04T07:17:14.820Z,1006.47
2017-10-04T07:18:14.840Z,1006.51
2017-10-04T07:19:14.861Z,1006.40
2017-10-04T07:20:14.880Z,1006.39
2017-10-04T07:21:14.897Z,1006.34
2017-10-04T07:22:14.919Z,1006.33
2017-10-04T07:23:14.938Z,1006.43
2017-10-04T07:24:14.957Z,1006.34
2017-10-04T07:25:14.978Z,1006.28
2017-10-04T07:26:14.999Z,1006.41
2017-10-04T07:27:15.017Z,1006.36
2017-10-04T07:28:15.042Z,1006.34
2017-10-04T07:29:15.057Z,1006.31
2017-10-04T07:30:15.079Z,1006.26
2017-10-04T07:31:15.097Z,1006.27
2017-10-04T07:32:15.117Z,1006.23
2017-10-04T07:33:15.140Z,1006.31
2017-10-04T07:34:15.158Z,1006.34
2017-10-04T07:35:15.178Z,1006.29
2017-10-04T07:36:15.198Z,1006.23
2017-10-04T07:37:15.220Z,1006.21
2017-10-04T07:38:15.237Z,1006.34
2017-10-04T07:39:15.258Z,1006.34
2017-10-04T07:40:15.279Z,1006.32
2017-10-04T07:41:15.297Z,1006.35
2017-10-04T07:42:15.314Z,1006.31
2017-10-04T07:43:15.349Z,1006.31
2017-10-04T07:44:15.356Z,1006.27
2017-10-04T07:45:15.378Z,1006.31
2017-10-04T07:46:15.398Z,1006.41
2017-10-04T07:47:15.416Z,1006.45
2017-10-04T07:48:15.440Z,1006.68
2017-10-04T07:49:15.458Z,1006.73
2017-10-04T07:50:15.477Z,1006.71
2017-10-04T07:51:15.495Z,1006.59
2017-10-04T07:52:15.518Z,1006.64
2017-10-04T07:53:15.540Z,1006.49
2017-10-04T07:54:15.561Z,1006.69
2017-10-04T07:55:15.576Z,1006.74
2017-10-04T07:56:15.597Z,1006.52
2017-10-04T07:57:15.617Z,1006.35
2017-10-04T07:58:15.642Z,1006.17
2017-10-04T07:59:15.660Z,1006.12
2017-10-04T08:00:15.678Z,1006.12
2017-10-04T08:01:15.703Z,1006.07
2017-10-04T08:02:15.724Z,1006.00
2017-10-04T08:03:15.742Z,1005.91
2017-10-04T08:04:15.816Z,1005.93
2017-10-04T08:05:15.785Z,1005.96
2017-10-04T08:06:15.809Z,1005.93
2017-10-04T08:07:15.823Z,1006.00
2017-10-04T08:08:15.844Z,1005.93
2017-10-04T08:09:15.864Z,1005.99
2017-10-04T08:10:15.888Z,1005.94
2017-10-04T08:11:15.905Z,1005.92
2017-10-04T08:12:15.925Z,1005.91
2017-10-04T08:13:15.947Z,1005.87
2017-10-04T08:14:15.987Z,1005.89
2017-10-04T08:15:15.988Z,1005.92
2017-10-04T08:16:16.008Z,1006.01
2017-10-04T08:17:16.045Z,1006.03
2017-10-04T08:18:16.049Z,1006.06
2017-10-04T08:19:16.079Z,1006.11
2017-10-04T08:20:16.093Z,1006.15
2017-10-04T08:21:16.113Z,1006.08
2017-10-04T08:22:16.129Z,1006.10
2017-10-04T08:23:16.152Z,1006.25
2017-10-04T08:24:16.171Z,1006.23
2017-10-04T08:25:16.191Z,1006.20
2017-10-04T08:26:16.214Z,1006.10
2017-10-04T08:27:16.232Z,1006.11
2017-10-04T08:28:16.252Z,1006.05
2017-10-04T08:29:16.276Z,1005.95
2017-10-04T08:30:16.294Z,1005.94
2017-10-04T08:31:16.314Z,1005.93
2017-10-04T08:32:16.338Z,1005.94
2017-10-04T08:33:16.359Z,1006.08
2017-10-04T08:34:16.378Z,1006.04
2017-10-04T08:35:16.396Z,1006.00
2017-10-04T08:36:16.417Z,1006.00
2017-10-04T08:37:16.439Z,1005.85
2017-10-04T08:38:16.459Z,1005.88
2017-10-04T08:39:16.478Z,1006.00
2017-10-04T08:40:16.502Z,1005.94
2017-10-04T08:41:16.519Z,1005.92
2017-10-04T08:42:16.543Z,1006.05
2017-10-04T08:43:16.567Z,1006.09
2017-10-04T08:44:16.584Z,1005.97
2017-10-04T08:45:16.602Z,1005.90
2017-10-04T08:46:16.628Z,1005.93
2017-10-04T08:47:16.643Z,1005.99
2017-10-04T08:48:16.665Z,1006.07
2017-10-04T08:49:16.689Z,1006.13
2017-10-04T08:50:16.707Z,1006.15
2017-10-04T08:51:16.727Z,1006.18
2017-10-04T08:52:16.754Z,1006.13
2017-10-04T08:53:16.772Z,1006.16
2017-10-04T08:54:16.791Z,1006.16
2017-10-04T08:55:16.813Z,1006.06
2017-10-04T08:56:16.865Z,1006.05
2017-10-04T08:57:16.852Z,1006.07
2017-10-04T08:58:16.874Z,1006.00
2017-10-04T08:59:16.893Z,1006.00
2017-10-04T09:00:16.918Z,1005.96
2017-10-04T09:01:16.936Z,1005.91
2017-10-04T09:02:16.957Z,1005.88
2017-10-04T09:03:16.993Z,1005.85
2017-10-04T09:04:16.997Z,1005.86
2017-10-04T09:05:17.020Z,1005.87
2017-10-04T09:06:17.040Z,1005.86
2017-10-04T09:07:17.069Z,1005.88
2017-10-04T09:08:17.104Z,1005.89
2017-10-04T09:09:17.105Z,1005.92
2017-10-04T09:10:17.124Z,1005.91
2017-10-04T09:11:17.144Z,1005.91
2017-10-04T09:12:17.177Z,1005.85
2017-10-04T09:13:17.190Z,1005.95
2017-10-04T09:14:17.208Z,1005.90
2017-10-04T09:15:17.225Z,1005.90
2017-10-04T09:16:17.246Z,1006.02
2017-10-04T09:17:17.268Z,1006.01
2017-10-04T09:18:17.290Z,1005.92
2017-10-04T09:19:17.309Z,1005.99
2017-10-04T09:20:17.333Z,1005.97
2017-10-04T09:21:17.351Z,1006.02
2017-10-04T09:22:17.376Z,1005.99
2017-10-04T09:23:17.392Z,1006.07
2017-10-04T09:24:17.412Z,1006.01
2017-10-04T09:25:17.433Z,1006.10
2017-10-04T09:26:17.452Z,1006.09
2017-10-04T09:27:17.476Z,1006.05
2017-10-04T09:28:17.495Z,1005.92
2017-10-04T09:29:17.514Z,1005.88
2017-10-04T09:30:17.534Z,1006.02
2017-10-04T09:31:17.556Z,1006.10
2017-10-04T09:32:17.578Z,1006.09
2017-10-04T09:33:17.597Z,1006.07
2017-10-04T09:34:17.618Z,1006.03
2017-10-04T09:35:17.639Z,1005.99
2017-10-04T09:36:17.658Z,1005.92
2017-10-04T09:37:17.681Z,1005.92
2017-10-04T09:38:17.700Z,1006.13
2017-10-04T09:39:17.719Z,1005.94
2017-10-04T09:40:17.744Z,1005.86
2017-10-04T09:41:17.764Z,1005.87
2017-10-04T09:42:17.786Z,1005.93
2017-10-04T09:43:17.807Z,1005.95
2017-10-04T09:44:17.826Z,1005.96
2017-10-04T09:45:17.848Z,1005.94
2017-10-04T09:46:17.866Z,1005.86
2017-10-04T09:47:17.886Z,1005.76
2017-10-04T09:48:17.906Z,1005.79
2017-10-04T09:49:17.932Z,1005.97
2017-10-04T09:50:17.954Z,1005.93
2017-10-04T09:51:17.972Z,1005.87
2017-10-04T09:52:17.989Z,1005.81
2017-10-04T09:53:18.015Z,1005.71
2017-10-04T09:54:18.030Z,1005.79
2017-10-04T09:55:18.054Z,1005.74
2017-10-04T09:56:18.073Z,1005.72
2017-10-04T09:57:18.097Z,1005.77
2017-10-04T09:58:18.120Z,1005.66
2017-10-04T09:59:18.134Z,1005.81
2017-10-04T10:00:18.154Z,1005.78
2017-10-04T10:01:18.176Z,1005.74
2017-10-04T10:02:18.199Z,1005.71
2017-10-04T10:03:18.214Z,1005.65
2017-10-04T10:04:18.244Z,1005.68
2017-10-04T10:05:18.260Z,1005.82
2017-10-04T10:06:18.291Z,1005.82
2017-10-04T10:07:18.300Z,1005.73
2017-10-04T10:08:18.321Z,1005.72
2017-10-04T10:09:18.340Z,1005.88
2017-10-04T10:10:18.367Z,1005.98
2017-10-04T10:11:18.382Z,1005.96
2017-10-04T10:12:18.401Z,1005.89
2017-10-04T10:13:18.423Z,1005.93
2017-10-04T10:14:18.444Z,1005.97
2017-10-04T10:15:18.470Z,1005.94
2017-10-04T10:16:18.484Z,1005.89
2017-10-04T10:17:18.513Z,1005.92
2017-10-04T10:18:18.525Z,1005.86
2017-10-04T10:19:18.544Z,1005.91
2017-10-04T10:20:18.567Z,1005.89
2017-10-04T10:21:18.585Z,1005.86
2017-10-04T10:22:18.608Z,1005.74
2017-10-04T10:23:18.626Z,1005.70
2017-10-04T10:24:18.648Z,1005.78
2017-10-04T10:25:18.668Z,1005.76
2017-10-04T10:26:18.690Z,1005.62
2017-10-04T10:27:18.709Z,1005.54
2017-10-04T10:28:18.728Z,1005.50
2017-10-04T10:29:18.757Z,1005.55
2017-10-04T10:30:18.770Z,1005.70
2017-10-04T10:31:18.788Z,1005.66
2017-10-04T10:32:18.813Z,1005.61
2017-10-04T10:33:18.830Z,1005.62
2017-10-04T10:34:18.853Z,1005.48
2017-10-04T10:35:18.874Z,1005.37
2017-10-04T10:36:18.896Z,1005.32
2017-10-04T10:37:18.915Z,1005.31
2017-10-04T10:38:18.946Z,1005.26
2017-10-04T10:39:18.957Z,1005.24
2017-10-04T10:40:18.977Z,1005.26
2017-10-04T10:41:18.998Z,1005.28
2017-10-04T10:42:19.018Z,1005.33
2017-10-04T10:43:19.038Z,1005.26
2017-10-04T10:44:19.060Z,1005.25
2017-10-04T10:45:19.079Z,1005.25
2017-10-04T10:46:19.102Z,1005.12
2017-10-04T10:47:19.120Z,1005.10
2017-10-04T10:48:19.142Z,1005.07
2017-10-04T10:49:19.163Z,1005.11
2017-10-04T10:50:19.182Z,1005.23
2017-10-04T10:51:19.208Z,1005.44
2017-10-04T10:52:19.223Z,1005.44
2017-10-04T10:53:19.248Z,1005.31
2017-10-04T10:54:19.263Z,1005.25
2017-10-04T10:55:19.285Z,1005.22
2017-10-04T10:56:19.308Z,1005.28
2017-10-04T10:57:19.328Z,1005.34
2017-10-04T10:58:19.351Z,1005.34
2017-10-04T10:59:19.676Z,1005.33
2017-10-04T11:00:19.390Z,1005.33
2017-10-04T11:01:19.412Z,1005.46
2017-10-04T11:02:19.455Z,1005.53
2017-10-04T11:03:19.452Z,1005.47
2017-10-04T11:04:19.470Z,1005.42
2017-10-04T11:05:19.490Z,1005.42
2017-10-04T11:06:19.520Z,1005.37
2017-10-04T11:07:19.533Z,1005.34
2017-10-04T11:08:19.553Z,1005.38
2017-10-04T11:09:19.586Z,1005.31
2017-10-04T11:10:19.609Z,1005.38
2017-10-04T11:11:19.614Z,1005.36
2017-10-04T11:12:19.672Z,1005.38
2017-10-04T11:13:19.657Z,1005.28
2017-10-04T11:14:19.682Z,1005.32
2017-10-04T11:15:19.751Z,1005.32
2017-10-04T11:16:19.715Z,1005.30
2017-10-04T11:17:19.738Z,1005.27
2017-10-04T11:18:19.774Z,1005.42
2017-10-04T11:19:19.779Z,1005.42
2017-10-04T11:20:19.798Z,1005.43
2017-10-04T11:21:19.849Z,1005.50
2017-10-04T11:22:19.844Z,1005.56
2017-10-04T11:23:19.860Z,1005.45
2017-10-04T11:24:19.883Z,1005.49
2017-10-04T11:25:19.902Z,1005.59
2017-10-04T11:26:19.926Z,1005.54
2017-10-04T11:27:19.942Z,1005.47
2017-10-04T11:28:19.970Z,1005.42
2017-10-04T11:29:19.982Z,1005.30
2017-10-04T11:30:20.006Z,1005.30
2017-10-04T11:31:20.027Z,1005.21
2017-10-04T11:32:20.047Z,1005.22
2017-10-04T11:33:20.069Z,1005.23
2017-10-04T11:34:20.089Z,1005.22
2017-10-04T11:35:20.107Z,1005.28
2017-10-04T11:36:20.128Z,1005.40
2017-10-04T11:37:20.153Z,1005.41
2017-10-04T11:38:20.168Z,1005.43
2017-10-04T11:39:20.190Z,1005.50
2017-10-04T11:40:20.211Z,1005.37
2017-10-04T11:41:20.230Z,1005.33
2017-10-04T11:42:20.250Z,1005.36
2017-10-04T11:43:20.273Z,1005.34
2017-10-04T11:44:20.291Z,1005.33
2017-10-04T11:45:20.315Z,1005.28
2017-10-04T11:46:20.333Z,1005.34
2017-10-04T11:47:20.353Z,1005.27
2017-10-04T11:48:20.374Z,1005.31
2017-10-04T11:49:20.399Z,1005.32
2017-10-04T11:50:20.417Z,1005.30
2017-10-04T11:51:20.435Z,1005.31
2017-10-04T11:52:20.460Z,1005.25
2017-10-04T11:53:20.477Z,1005.27
2017-10-04T11:54:20.499Z,1005.38
2017-10-04T11:55:20.517Z,1005.40
2017-10-04T11:56:20.550Z,1005.28
2017-10-04T11:57:20.558Z,1005.14
2017-10-04T11:58:20.580Z,1005.02
2017-10-04T11:59:20.601Z,1005.01
2017-10-04T12:00:20.620Z,1005.15
2017-10-04T12:01:20.644Z,1005.15
2017-10-04T12:02:20.664Z,1005.13
2017-10-04T12:03:20.697Z,1005.17
2017-10-04T12:04:20.705Z,1005.12
2017-10-04T12:05:20.727Z,1004.98